Time;durP1;ratioP1;P1;durP2;ratioP2;P2;SDS_P1;SDS_P2;PMS_P1;PMS_P2;Temp;Humidity;BMP_temperature;BMP_pressure;BME280_temperature;BME280_humidity;BME280_pressure;Samples;Min_cycle;Max_cycle;Signal;HPM_P1;HPM_P2
2023/10/20 00:00:36;;;;;;;10.33;9.33;;;8.00;99.90;;;;;;5086650;28;20684;-66
2023/10/20 00:03:05;;;;;;;10.60;9.70;;;8.00;99.90;;;;;;5087151;28;20226;-66
2023/10/20 00:05:34;;;;;;;11.13;10.13;;;8.00;99.90;;;;;;5086259;28;20760;-66
2023/10/20 00:08:00;;;;;;;11.63;10.57;;;8.00;99.90;;;;;;5086619;28;20670;-67
2023/10/20 00:10:31;;;;;;;10.87;9.97;;;8.00;99.90;;;;;;5086622;28;20237;-67
2023/10/20 00:12:59;;;;;;;11.37;10.37;;;8.00;99.90;;;;;;5102298;28;20680;-66
2023/10/20 00:15:26;;;;;;;10.87;9.97;;;8.00;99.90;;;;;;5106838;28;20672;-67
2023/10/20 00:17:53;;;;;;;11.63;10.53;;;8.00;99.90;;;;;;5105749;28;20202;-67
2023/10/20 00:20:20;;;;;;;11.67;10.57;;;8.00;99.90;;;;;;5089002;28;20214;-67
2023/10/20 00:22:48;;;;;;;10.87;9.93;;;8.00;99.90;;;;;;5086577;28;20203;-67
2023/10/20 00:25:15;;;;;;;11.43;10.43;;;8.10;99.90;;;;;;5086111;28;20748;-67
2023/10/20 00:27:42;;;;;;;11.17;10.17;;;8.00;99.90;;;;;;5086067;28;20260;-67
2023/10/20 00:30:11;;;;;;;11.67;10.57;;;8.00;99.90;;;;;;5086275;28;20257;-67
2023/10/20 00:32:40;;;;;;;10.87;9.87;;;8.00;99.90;;;;;;5097123;28;20234;-67
2023/10/20 00:35:07;;;;;;;11.47;10.37;;;8.00;99.90;;;;;;5089143;28;20198;-66
2023/10/20 00:37:34;;;;;;;11.07;10.03;;;8.00;99.90;;;;;;5085377;28;20235;-66
2023/10/20 00:40:07;;;;;;;10.60;9.60;;;8.00;99.90;;;;;;5085683;28;20237;-66
2023/10/20 00:42:34;;;;;;;11.13;10.13;;;8.00;99.90;;;;;;5085911;28;20277;-66
2023/10/20 00:45:01;;;;;;;11.37;10.17;;;8.00;99.90;;;;;;5098250;28;20245;-66
2023/10/20 00:47:31;;;;;;;11.33;10.27;;;8.00;99.90;;;;;;5106165;28;20198;-66
2023/10/20 00:49:59;;;;;;;10.90;10.00;;;8.00;99.90;;;;;;5088218;28;20218;-66
2023/10/20 00:52:29;;;;;;;10.43;9.60;;;8.00;99.90;;;;;;5086412;28;20303;-66
2023/10/20 00:54:56;;;;;;;10.63;9.73;;;8.00;99.90;;;;;;5086381;28;20294;-66
2023/10/20 00:57:26;;;;;;;10.97;10.07;;;8.00;99.90;;;;;;5085991;28;20300;-66
2023/10/20 00:59:53;;;;;;;10.07;9.17;;;8.00;99.90;;;;;;5086080;28;20638;-66
2023/10/20 01:02:21;;;;;;;10.67;9.70;;;8.00;99.90;;;;;;5089065;28;20202;-67
2023/10/20 01:04:48;;;;;;;10.23;9.23;;;8.00;99.90;;;;;;5085724;28;20214;-66
2023/10/20 01:07:15;;;;;;;10.03;9.13;;;7.90;99.90;;;;;;5085755;28;20222;-66
2023/10/20 01:09:43;;;;;;;9.50;8.70;;;8.00;99.90;;;;;;5085619;28;20672;-66
2023/10/20 01:12:10;;;;;;;10.13;9.13;;;7.90;99.90;;;;;;5092127;28;20245;-66
2023/10/20 01:14:39;;;;;;;10.77;9.87;;;8.00;99.90;;;;;;5088954;28;20203;-66
2023/10/20 01:17:06;;;;;;;10.43;9.50;;;8.00;99.90;;;;;;5105667;28;20321;-67
2023/10/20 01:19:33;;;;;;;10.83;9.83;;;8.00;99.90;;;;;;5105073;28;20198;-67
2023/10/20 01:22:00;;;;;;;9.90;9.00;;;8.00;99.90;;;;;;5096852;28;20657;-67
2023/10/20 01:24:29;;;;;;;9.90;9.10;;;8.00;99.90;;;;;;5101486;28;20203;-67
2023/10/20 01:26:56;;;;;;;9.77;8.97;;;8.00;99.90;;;;;;5084639;28;20302;-67
2023/10/20 01:29:23;;;;;;;9.13;8.43;;;8.00;99.90;;;;;;5085565;28;20294;-67
2023/10/20 01:31:50;;;;;;;9.73;8.80;;;8.00;99.90;;;;;;5089169;28;20362;-67
2023/10/20 01:34:17;;;;;;;10.13;9.13;;;8.00;99.90;;;;;;5105149;28;20210;-67
2023/10/20 01:36:44;;;;;;;10.00;9.20;;;8.00;99.90;;;;;;5105600;28;20724;-67
2023/10/20 01:39:11;;;;;;;9.67;8.87;;;8.00;99.90;;;;;;5105792;28;20637;-67
2023/10/20 01:41:39;;;;;;;9.13;8.43;;;8.00;99.90;;;;;;5098855;28;20282;-67
2023/10/20 01:44:08;;;;;;;9.80;8.90;;;8.00;99.90;;;;;;5092985;28;20294;-67
2023/10/20 01:46:36;;;;;;;9.87;9.07;;;8.00;99.90;;;;;;5085329;28;20218;-67
2023/10/20 01:49:03;;;;;;;9.43;8.63;;;7.90;99.90;;;;;;5084743;28;20834;-67
2023/10/20 01:51:30;;;;;;;9.60;8.80;;;7.90;99.90;;;;;;5084720;28;20771;-67
2023/10/20 01:53:56;;;;;;;8.97;8.27;;;7.90;99.90;;;;;;5084633;28;20230;-67
2023/10/20 01:56:23;;;;;;;9.63;8.73;;;7.90;99.90;;;;;;5084987;28;20633;-67
2023/10/20 01:58:52;;;;;;;9.20;8.50;;;7.90;99.90;;;;;;5104942;28;20212;-67
2023/10/20 02:01:20;;;;;;;9.30;8.50;;;7.90;99.90;;;;;;5104338;28;20202;-67
2023/10/20 02:03:49;;;;;;;8.23;7.53;;;8.00;99.90;;;;;;5104859;28;20687;-67
2023/10/20 02:06:16;;;;;;;8.47;7.77;;;7.90;99.90;;;;;;5104633;28;20668;-67
2023/10/20 02:08:45;;;;;;;8.57;7.80;;;7.90;99.90;;;;;;5105026;28;20702;-67
2023/10/20 02:11:12;;;;;;;8.63;7.93;;;7.90;99.90;;;;;;5104474;28;20229;-66
2023/10/20 02:13:40;;;;;;;8.67;7.97;;;7.90;99.90;;;;;;5104600;28;20232;-66
2023/10/20 02:16:09;;;;;;;8.57;7.83;;;8.00;99.90;;;;;;5104893;28;20206;-66
2023/10/20 02:18:36;;;;;;;7.40;6.80;;;8.00;99.90;;;;;;5104475;28;20206;-66
2023/10/20 02:21:04;;;;;;;7.73;7.13;;;7.90;99.90;;;;;;5103263;28;20210;-66
2023/10/20 02:23:31;;;;;;;7.27;6.73;;;8.00;99.90;;;;;;5084464;28;20213;-66
2023/10/20 02:25:59;;;;;;;7.40;6.70;;;8.00;99.90;;;;;;5083983;28;20195;-66
2023/10/20 02:28:26;;;;;;;7.20;6.60;;;8.00;99.90;;;;;;5084350;28;20298;-66
2023/10/20 02:30:53;;;;;;;6.70;6.27;;;8.00;99.90;;;;;;5098376;28;20244;-66
2023/10/20 02:33:21;;;;;;;6.57;6.07;;;8.00;99.90;;;;;;5104356;28;20305;-66
2023/10/20 02:35:48;;;;;;;6.73;6.13;;;8.00;99.90;;;;;;5104929;28;20272;-66
2023/10/20 02:38:15;;;;;;;6.80;6.20;;;8.00;99.90;;;;;;5105347;28;20290;-66
2023/10/20 02:44:05;;;;;;;6.00;5.57;;;8.00;99.90;;;;;;5092271;28;20240;-66
2023/10/20 02:46:32;;;;;;;6.00;5.60;;;7.90;99.90;;;;;;5094671;28;20230;-66
2023/10/20 02:49:01;;;;;;;6.17;5.57;;;7.90;99.90;;;;;;5104531;28;20212;-66
2023/10/20 02:51:28;;;;;;;6.03;5.57;;;7.80;99.90;;;;;;5103747;28;20767;-66
2023/10/20 02:53:54;;;;;;;5.80;5.40;;;7.90;99.90;;;;;;5104649;28;20760;-66
2023/10/20 02:56:23;;;;;;;5.90;5.50;;;7.80;99.90;;;;;;5104605;28;20216;-66
2023/10/20 02:58:50;;;;;;;5.60;5.20;;;7.80;99.90;;;;;;5100296;28;20249;-66
2023/10/20 03:01:20;;;;;;;5.30;4.90;;;7.80;99.90;;;;;;5104379;28;20300;-66
2023/10/20 03:03:47;;;;;;;4.83;4.53;;;7.80;99.90;;;;;;5104601;28;20260;-66
2023/10/20 03:06:16;;;;;;;4.73;4.43;;;7.70;99.90;;;;;;5104545;28;20221;-66
2023/10/20 03:08:43;;;;;;;4.40;4.10;;;7.80;99.90;;;;;;5092090;28;20238;-69
2023/10/20 03:11:10;;;;;;;5.00;4.70;;;7.80;99.90;;;;;;5101861;28;20237;-66
2023/10/20 03:13:38;;;;;;;4.40;4.00;;;7.80;99.90;;;;;;5098337;28;20300;-66
2023/10/20 03:16:06;;;;;;;4.40;4.10;;;7.70;99.90;;;;;;5100703;28;20203;-66
2023/10/20 03:18:33;;;;;;;4.70;4.40;;;7.70;99.90;;;;;;5106276;28;20237;-66
2023/10/20 03:21:01;;;;;;;4.23;3.93;;;7.70;99.90;;;;;;5105904;28;20317;-66
2023/10/20 03:23:31;;;;;;;4.40;4.00;;;7.70;99.90;;;;;;5105989;28;20217;-66
2023/10/20 03:25:58;;;;;;;4.70;4.30;;;7.80;99.90;;;;;;5100860;28;20310;-66
2023/10/20 03:28:24;;;;;;;4.23;3.93;;;7.70;99.90;;;;;;5086133;28;20213;-66
2023/10/20 03:30:53;;;;;;;4.37;4.07;;;7.80;99.90;;;;;;5097390;28;20293;-66
2023/10/20 03:33:20;;;;;;;4.73;4.43;;;7.70;99.90;;;;;;5105553;27;20708;-66
2023/10/20 03:35:47;;;;;;;4.57;4.17;;;7.70;99.90;;;;;;5106031;28;20313;-66
2023/10/20 03:38:15;;;;;;;4.23;3.93;;;7.70;99.90;;;;;;5105800;28;20233;-66
2023/10/20 03:40:46;;;;;;;5.67;4.10;;;7.60;99.90;;;;;;5096861;28;20210;-66
2023/10/20 03:43:13;;;;;;;4.43;4.13;;;7.70;99.90;;;;;;5086262;28;20207;-66
2023/10/20 03:45:41;;;;;;;4.37;4.07;;;7.60;99.90;;;;;;5095146;28;20257;-66
2023/10/20 03:48:09;;;;;;;4.73;4.43;;;7.70;99.90;;;;;;5105744;28;20194;-66
2023/10/20 03:50:38;;;;;;;4.20;3.90;;;7.70;99.90;;;;;;5105715;28;20302;-66
2023/10/20 03:53:06;;;;;;;4.37;4.07;;;7.60;99.90;;;;;;5105949;27;20229;-67
2023/10/20 03:55:34;;;;;;;5.00;4.60;;;7.70;99.90;;;;;;5104057;28;20206;-66
2023/10/20 03:58:03;;;;;;;4.47;3.90;;;7.70;99.90;;;;;;5104546;28;20692;-66
2023/10/20 04:00:31;;;;;;;4.40;4.10;;;7.70;99.90;;;;;;5104911;28;20305;-67
2023/10/20 04:02:58;;;;;;;3.97;3.77;;;7.70;99.90;;;;;;5100169;27;20251;-66
2023/10/20 04:05:25;;;;;;;4.70;4.30;;;7.70;99.90;;;;;;5089406;28;20246;-66
2023/10/20 04:07:52;;;;;;;4.80;4.40;;;7.60;99.90;;;;;;5094785;28;20206;-67
2023/10/20 04:10:20;;;;;;;4.10;3.80;;;7.70;99.90;;;;;;5105676;28;20301;-65
2023/10/20 04:12:47;;;;;;;4.47;4.13;;;7.70;99.90;;;;;;5098438;27;20311;-66
2023/10/20 04:15:17;;;;;;;4.63;4.23;;;7.70;99.90;;;;;;5093298;28;20202;-66
2023/10/20 04:17:51;;;;;;;4.17;3.83;;;7.70;99.90;;;;;;5095659;28;20205;-66
2023/10/20 04:20:19;;;;;;;6.33;4.47;;;7.70;99.90;;;;;;5095319;28;20193;-66
2023/10/20 04:22:49;;;;;;;4.97;4.57;;;7.70;99.90;;;;;;5103779;28;20319;-66
2023/10/20 04:25:17;;;;;;;4.63;4.27;;;7.70;99.90;;;;;;5105797;28;20757;-66
2023/10/20 04:27:50;;;;;;;5.03;4.63;;;7.70;99.90;;;;;;5106431;27;20210;-67
2023/10/20 04:47:22;;;;;;;4.97;4.57;;;7.60;99.90;;;;;;5101015;28;20271;-66
2023/10/20 04:58:16;;;;;;;4.90;4.50;;;7.50;99.90;;;;;;5062304;28;20208;-66
2023/10/20 05:00:43;;;;;;;4.97;4.50;;;7.50;99.90;;;;;;5060324;28;20580;-66
2023/10/20 05:03:29;;;;;;;4.70;4.30;;;7.50;99.90;;;;;;5079742;28;20263;-66
2023/10/20 05:06:05;;;;;;;5.23;4.67;;;7.50;99.90;;;;;;5102210;28;20286;-66
2023/10/20 05:08:32;;;;;;;4.80;4.40;;;7.50;99.90;;;;;;5101372;28;20190;-66
2023/10/20 05:11:01;;;;;;;4.60;4.30;;;7.50;99.90;;;;;;5104796;28;20624;-65
2023/10/20 05:13:27;;;;;;;5.27;4.77;;;7.40;99.90;;;;;;5102538;28;20230;-66
2023/10/20 05:15:54;;;;;;;4.60;4.30;;;7.50;99.90;;;;;;5104717;28;20200;-66
2023/10/20 05:18:25;;;;;;;4.20;3.90;;;7.50;99.90;;;;;;5104594;28;20202;-66
2023/10/20 05:20:52;;;;;;;5.23;4.83;;;7.50;99.90;;;;;;5102864;28;20325;-66
2023/10/20 05:23:19;;;;;;;5.17;4.67;;;7.50;99.90;;;;;;5104173;28;20317;-66
2023/10/20 05:25:47;;;;;;;5.50;5.00;;;7.50;99.90;;;;;;5101927;28;20201;-66
2023/10/20 05:28:16;;;;;;;4.80;4.47;;;7.50;99.90;;;;;;5103037;28;20202;-66
2023/10/20 05:30:44;;;;;;;5.70;5.13;;;7.50;99.90;;;;;;5102858;28;20797;-66
2023/10/20 05:33:11;;;;;;;5.60;5.20;;;7.50;99.90;;;;;;5104508;28;20232;-66
2023/10/20 05:35:40;;;;;;;5.50;5.10;;;7.50;99.90;;;;;;5103496;28;20906;-66
2023/10/20 05:38:07;;;;;;;4.87;4.47;;;7.50;99.90;;;;;;5101072;28;20190;-66
2023/10/20 05:40:35;;;;;;;5.20;4.80;;;7.50;99.90;;;;;;5104071;28;20723;-66
2023/10/20 05:43:05;;;;;;;5.70;5.30;;;7.50;99.90;;;;;;5098548;28;20206;-66
2023/10/20 05:45:37;;;;;;;5.40;4.90;;;7.50;99.90;;;;;;5104651;28;20564;-67
2023/10/20 05:48:06;;;;;;;5.43;5.00;;;7.60;99.90;;;;;;5102857;28;20206;-66
2023/10/20 05:50:35;;;;;;;6.17;5.57;;;7.60;99.90;;;;;;5102972;28;20202;-66
2023/10/20 05:53:04;;;;;;;6.23;5.63;;;7.60;99.90;;;;;;5103439;28;20232;-67
2023/10/20 05:55:31;;;;;;;6.60;6.00;;;7.50;99.90;;;;;;5104610;28;20289;-66
2023/10/20 05:57:58;;;;;;;6.30;5.80;;;7.50;99.90;;;;;;5103695;28;20305;-66
2023/10/20 06:00:25;;;;;;;6.13;5.60;;;7.50;99.90;;;;;;5093819;28;20293;-66
2023/10/20 06:02:52;;;;;;;6.37;5.73;;;7.50;99.90;;;;;;5100578;28;20622;-66
2023/10/20 06:05:20;;;;;;;5.93;5.43;;;7.50;99.90;;;;;;5104924;28;20206;-66
2023/10/20 06:07:47;;;;;;;5.97;5.47;;;7.50;99.90;;;;;;5098329;28;20208;-66
2023/10/20 06:10:22;;;;;;;7.50;6.00;;;7.40;99.90;;;;;;5105067;28;20202;-66
2023/10/20 06:12:53;;;;;;;7.47;6.23;;;7.40;99.90;;;;;;5104102;28;20909;-66
2023/10/20 06:15:21;;;;;;;7.87;6.10;;;7.40;99.90;;;;;;5103156;28;20282;-66
2023/10/20 06:17:49;;;;;;;6.73;5.90;;;7.40;99.90;;;;;;5100090;28;20198;-66
2023/10/20 06:20:16;;;;;;;6.17;5.60;;;7.40;99.90;;;;;;5102469;28;20203;-66
2023/10/20 06:22:44;;;;;;;6.70;5.90;;;7.40;99.90;;;;;;5100566;28;20260;-66
2023/10/20 06:25:13;;;;;;;5.87;5.43;;;7.40;99.90;;;;;;5103998;28;20221;-66
2023/10/20 06:27:42;;;;;;;7.13;5.67;;;7.40;99.90;;;;;;5094335;28;20582;-66
2023/10/20 06:30:19;;;;;;;7.43;5.93;;;7.30;99.90;;;;;;5102500;28;20310;-66
2023/10/20 06:32:51;;;;;;;7.47;5.93;;;7.40;99.90;;;;;;5100078;28;20213;-66
2023/10/20 06:35:18;;;;;;;6.53;5.77;;;7.40;99.90;;;;;;5104995;28;20206;-66
2023/10/20 06:37:55;;;;;;;7.50;5.80;;;7.40;99.90;;;;;;5061678;28;20613;-66
2023/10/20 06:40:22;;;;;;;6.80;6.07;;;7.40;99.90;;;;;;5064514;28;20230;-66
2023/10/20 06:42:50;;;;;;;7.10;6.40;;;7.30;99.90;;;;;;5066078;28;20694;-66
2023/10/20 06:45:17;;;;;;;6.33;5.83;;;7.30;99.90;;;;;;5068270;28;20230;-66
2023/10/20 06:47:44;;;;;;;7.00;6.30;;;7.20;99.90;;;;;;5068449;28;20282;-66
2023/10/20 06:50:11;;;;;;;6.77;6.07;;;7.30;99.90;;;;;;5067793;28;20681;-67
2023/10/20 06:52:38;;;;;;;6.97;6.37;;;7.30;99.90;;;;;;5063871;28;20296;-66
2023/10/20 06:55:06;;;;;;;7.30;6.53;;;7.30;99.90;;;;;;5062208;28;20286;-67
2023/10/20 06:57:33;;;;;;;6.97;6.27;;;7.20;99.90;;;;;;5068346;28;20314;-67
2023/10/20 07:00:03;;;;;;;6.60;5.90;;;7.20;99.90;;;;;;5067287;28;20689;-66
2023/10/20 07:02:30;;;;;;;8.43;6.37;;;7.20;99.90;;;;;;5057323;28;20679;-66
2023/10/20 07:04:57;;;;;;;7.17;6.30;;;7.10;99.90;;;;;;5062976;28;20772;-66
2023/10/20 07:07:24;;;;;;;8.53;6.57;;;7.20;99.90;;;;;;5067521;28;20207;-66
2023/10/20 07:09:51;;;;;;;7.57;6.77;;;7.20;99.90;;;;;;5064919;28;20296;-66
2023/10/20 07:12:18;;;;;;;8.83;7.03;;;7.20;99.90;;;;;;5066697;28;20333;-66
2023/10/20 07:14:45;;;;;;;7.67;7.00;;;7.20;99.90;;;;;;5050304;28;20651;-66
2023/10/20 07:17:13;;;;;;;7.30;6.60;;;7.10;99.90;;;;;;5047808;28;20721;-66
2023/10/20 07:19:40;;;;;;;9.13;7.57;;;7.10;99.90;;;;;;5056673;28;20290;-66
2023/10/20 07:22:07;;;;;;;7.57;6.47;;;7.20;99.90;;;;;;5064826;28;20200;-67
2023/10/20 07:24:34;;;;;;;7.03;6.43;;;7.10;99.90;;;;;;5067188;28;20234;-66
2023/10/20 07:27:02;;;;;;;9.10;6.77;;;7.10;99.90;;;;;;5056634;28;20200;-66
2023/10/20 07:29:29;;;;;;;7.20;6.20;;;7.10;99.90;;;;;;5065118;28;20224;-66
2023/10/20 07:31:56;;;;;;;7.30;6.33;;;7.10;99.90;;;;;;5047151;28;20208;-66
2023/10/20 07:34:25;;;;;;;7.13;6.43;;;7.10;99.90;;;;;;5048321;28;20243;-66
2023/10/20 07:36:52;;;;;;;6.07;5.50;;;7.10;99.90;;;;;;5081963;28;20745;-66
2023/10/20 07:39:19;;;;;;;5.87;5.43;;;7.00;99.90;;;;;;5105155;28;20210;-66
2023/10/20 07:41:47;;;;;;;6.60;6.00;;;7.10;99.90;;;;;;5099810;28;20290;-66
2023/10/20 07:44:15;;;;;;;7.00;5.70;;;7.10;99.90;;;;;;5094491;28;20689;-66
2023/10/20 07:46:43;;;;;;;7.97;6.40;;;7.00;99.90;;;;;;5106642;28;20553;-67
2023/10/20 07:49:11;;;;;;;6.90;5.90;;;6.90;99.90;;;;;;5103459;28;20214;-66
2023/10/20 07:51:39;;;;;;;6.90;6.30;;;7.00;99.90;;;;;;5107605;28;20241;-66
2023/10/20 07:54:08;;;;;;;6.90;6.10;;;6.90;99.90;;;;;;5105705;28;20707;-66
2023/10/20 07:56:35;;;;;;;6.40;5.80;;;7.00;99.90;;;;;;5101634;27;20619;-66
2023/10/20 07:59:03;;;;;;;7.40;6.07;;;7.00;99.90;;;;;;5099980;28;20286;-67
2023/10/20 08:01:31;;;;;;;7.47;5.87;;;7.00;99.90;;;;;;5106232;28;20205;-66
2023/10/20 08:03:57;;;;;;;6.33;5.70;;;7.00;99.90;;;;;;5104983;28;20732;-65
2023/10/20 08:06:24;;;;;;;6.53;5.97;;;7.00;99.90;;;;;;5106787;28;20245;-65
2023/10/20 08:08:53;;;;;;;6.53;5.93;;;7.00;99.90;;;;;;5101501;28;20257;-65
2023/10/20 08:11:19;;;;;;;6.17;5.63;;;7.00;99.90;;;;;;5099004;28;20653;-65
2023/10/20 08:13:50;;;;;;;6.20;5.50;;;7.00;99.90;;;;;;5098468;28;20325;-65
2023/10/20 08:16:18;;;;;;;6.50;5.73;;;7.00;99.90;;;;;;5105247;28;20194;-65
2023/10/20 08:18:45;;;;;;;6.70;5.67;;;7.00;99.90;;;;;;5105321;28;20194;-66
2023/10/20 08:21:12;;;;;;;5.53;5.13;;;7.00;99.90;;;;;;5099148;28;20325;-66
2023/10/20 08:23:40;;;;;;;5.90;5.30;;;7.10;99.90;;;;;;5106956;28;20293;-65
2023/10/20 08:26:15;;;;;;;6.73;4.97;;;7.00;99.90;;;;;;5101774;27;20684;-65
2023/10/20 08:28:42;;;;;;;5.33;4.83;;;7.00;99.90;;;;;;5105817;27;20209;-65
2023/10/20 08:31:10;;;;;;;6.07;5.47;;;6.90;99.90;;;;;;5106687;28;20321;-65
2023/10/20 08:33:37;;;;;;;5.90;5.03;;;6.90;99.90;;;;;;5104107;28;20326;-66
2023/10/20 08:36:12;;;;;;;5.57;5.07;;;6.90;99.90;;;;;;5106290;28;20241;-65
2023/10/20 08:38:40;;;;;;;5.50;5.10;;;6.90;99.90;;;;;;5103724;28;20292;-66
2023/10/20 08:41:13;;;;;;;5.57;4.97;;;7.00;99.90;;;;;;5104737;27;20294;-65
2023/10/20 08:43:41;;;;;;;5.17;4.67;;;7.00;99.90;;;;;;5097169;28;20313;-66
2023/10/20 08:46:09;;;;;;;4.90;4.50;;;7.00;99.90;;;;;;5103954;27;20974;-66
2023/10/20 08:48:38;;;;;;;5.30;4.83;;;6.90;99.90;;;;;;5105867;28;20209;-66
2023/10/20 08:51:05;;;;;;;5.57;5.07;;;6.90;99.90;;;;;;5095754;28;20209;-66
2023/10/20 08:53:34;;;;;;;5.30;4.90;;;7.00;99.90;;;;;;5106398;28;20251;-66
2023/10/20 08:56:02;;;;;;;5.60;5.10;;;7.00;99.90;;;;;;5106288;28;20225;-66
2023/10/20 08:58:31;;;;;;;4.63;4.33;;;7.00;99.90;;;;;;5104210;28;20297;-66
2023/10/20 09:00:59;;;;;;;5.87;4.40;;;7.00;99.90;;;;;;5105284;28;20281;-65
2023/10/20 09:03:26;;;;;;;5.10;4.67;;;7.00;99.90;;;;;;5105348;28;20218;-66
2023/10/20 09:05:54;;;;;;;4.90;4.50;;;7.10;99.90;;;;;;5103066;28;20194;-66
2023/10/20 09:08:22;;;;;;;4.60;4.30;;;7.10;99.90;;;;;;5103942;28;20201;-66
2023/10/20 09:10:49;;;;;;;4.73;4.43;;;7.10;99.90;;;;;;5094759;28;20840;-66
2023/10/20 09:13:16;;;;;;;6.87;4.73;;;7.20;99.90;;;;;;5102966;28;20230;-66
2023/10/20 09:15:44;;;;;;;4.80;4.17;;;7.10;99.90;;;;;;5105245;28;20267;-66
2023/10/20 09:18:11;;;;;;;4.83;4.43;;;7.00;99.90;;;;;;5104951;28;20851;-66
2023/10/20 09:20:39;;;;;;;4.37;4.03;;;7.00;99.90;;;;;;5104659;28;20225;-66
2023/10/20 09:23:09;;;;;;;4.40;4.00;;;7.00;99.90;;;;;;5103194;28;20217;-66
2023/10/20 09:25:37;;;;;;;4.30;4.00;;;6.90;99.90;;;;;;5095883;28;20203;-66
2023/10/20 09:28:04;;;;;;;4.63;4.10;;;6.90;99.90;;;;;;5104614;28;20309;-67
2023/10/20 09:30:32;;;;;;;4.27;3.97;;;6.90;99.90;;;;;;5103044;28;20206;-66
2023/10/20 09:33:00;;;;;;;4.43;4.10;;;6.90;99.90;;;;;;5093880;28;20757;-67
2023/10/20 09:35:29;;;;;;;4.87;4.33;;;7.00;99.90;;;;;;5103530;28;20206;-67
2023/10/20 09:37:59;;;;;;;4.33;3.93;;;7.00;99.90;;;;;;5099687;28;20198;-67
2023/10/20 09:40:27;;;;;;;4.30;4.00;;;7.00;99.90;;;;;;5105513;28;20288;-66
2023/10/20 09:43:08;;;;;;;4.37;3.97;;;7.00;99.90;;;;;;5097086;28;20313;-67
2023/10/20 09:45:37;;;;;;;4.60;4.20;;;7.00;99.90;;;;;;5097757;28;20248;-67
2023/10/20 09:48:13;;;;;;;4.23;3.83;;;7.00;99.90;;;;;;5105051;28;20205;-66
2023/10/20 09:50:40;;;;;;;4.80;4.40;;;7.00;99.90;;;;;;5103110;28;20707;-67
2023/10/20 09:53:07;;;;;;;5.07;4.40;;;7.00;99.90;;;;;;5104841;28;21025;-66
2023/10/20 09:55:35;;;;;;;3.80;3.50;;;7.00;99.90;;;;;;5104814;28;20429;-67
2023/10/20 09:58:02;;;;;;;4.20;3.90;;;6.90;99.90;;;;;;5103993;28;20297;-67
2023/10/20 10:00:33;;;;;;;3.97;3.67;;;6.90;99.90;;;;;;5103042;28;20206;-66
2023/10/20 10:03:00;;;;;;;4.30;3.90;;;6.90;99.90;;;;;;5104915;28;20206;-67
2023/10/20 10:05:30;;;;;;;4.00;3.73;;;7.00;99.90;;;;;;5101729;28;20289;-67
2023/10/20 10:08:05;;;;;;;4.33;4.03;;;7.00;99.90;;;;;;5104955;28;20224;-67
2023/10/20 10:10:33;;;;;;;4.10;3.80;;;7.00;99.90;;;;;;5099817;28;20630;-67
2023/10/20 10:13:01;;;;;;;4.07;3.70;;;6.90;99.90;;;;;;5104986;28;20217;-67
2023/10/20 10:15:37;;;;;;;4.00;3.70;;;7.00;99.90;;;;;;5104964;28;20208;-67
2023/10/20 10:18:09;;;;;;;4.23;3.93;;;7.00;99.90;;;;;;5099045;28;20222;-66
2023/10/20 10:20:45;;;;;;;4.30;3.90;;;6.90;99.90;;;;;;5106321;28;20236;-67
2023/10/20 10:23:14;;;;;;;3.90;3.60;;;6.90;99.90;;;;;;5105432;28;20222;-66
2023/10/20 10:25:42;;;;;;;4.40;4.00;;;6.90;99.90;;;;;;5101324;28;20655;-65
2023/10/20 10:28:12;;;;;;;4.47;4.17;;;6.90;99.90;;;;;;5107691;28;20216;-65
2023/10/20 10:30:39;;;;;;;4.53;4.13;;;6.90;99.90;;;;;;5109183;28;20297;-66
2023/10/20 10:33:08;;;;;;;3.80;3.60;;;6.90;99.90;;;;;;5108508;28;20693;-65
2023/10/20 10:35:36;;;;;;;4.23;3.83;;;6.80;99.90;;;;;;5106510;28;20232;-66
2023/10/20 10:38:06;;;;;;;4.13;3.83;;;6.80;99.90;;;;;;5108631;28;20665;-66
2023/10/20 10:40:34;;;;;;;4.00;3.80;;;6.80;99.90;;;;;;5108902;28;20187;-66
2023/10/20 10:43:01;;;;;;;3.47;3.27;;;6.90;99.90;;;;;;5108842;28;20362;-66
2023/10/20 10:45:30;;;;;;;4.03;3.73;;;6.90;99.90;;;;;;5106753;28;20739;-66
2023/10/20 10:48:08;;;;;;;4.17;3.70;;;6.90;99.90;;;;;;5089391;28;20295;-66
2023/10/20 10:50:37;;;;;;;3.43;3.23;;;6.80;99.90;;;;;;5097973;28;20217;-66
2023/10/20 10:53:06;;;;;;;3.83;3.57;;;6.90;99.90;;;;;;5108475;28;20294;-66
2023/10/20 10:55:37;;;;;;;3.90;3.60;;;6.90;99.90;;;;;;5108272;27;20205;-66
2023/10/20 10:58:05;;;;;;;3.60;3.30;;;6.90;99.90;;;;;;5108449;28;20277;-66
2023/10/20 11:00:33;;;;;;;3.80;3.40;;;6.90;99.90;;;;;;5108213;28;20198;-65
2023/10/20 11:03:01;;;;;;;3.90;3.50;;;6.90;99.90;;;;;;5105875;28;20286;-66
2023/10/20 11:05:28;;;;;;;3.60;3.37;;;6.90;99.90;;;;;;5105326;28;20210;-65
2023/10/20 11:07:57;;;;;;;3.73;3.43;;;6.90;99.90;;;;;;5101728;28;20683;-66
2023/10/20 11:10:27;;;;;;;3.73;3.53;;;7.00;99.90;;;;;;5108286;27;20867;-65
2023/10/20 11:12:54;;;;;;;3.50;3.30;;;6.90;99.90;;;;;;5105340;28;20209;-66
2023/10/20 11:15:21;;;;;;;3.40;3.20;;;6.90;99.90;;;;;;5095068;28;20236;-65
2023/10/20 11:17:49;;;;;;;3.20;3.00;;;6.90;99.90;;;;;;5119388;27;20203;-66
2023/10/20 11:20:20;;;;;;;4.10;3.20;;;6.90;99.90;;;;;;5108068;28;20372;-66
2023/10/20 11:22:52;;;;;;;3.37;3.17;;;6.90;99.90;;;;;;5108505;28;20627;-66
2023/10/20 11:25:20;;;;;;;3.40;3.20;;;6.90;99.90;;;;;;5108442;28;20230;-65
2023/10/20 11:27:53;;;;;;;3.33;3.13;;;6.90;99.90;;;;;;5096811;28;20206;-65
2023/10/20 11:30:27;;;;;;;3.43;3.03;;;6.90;99.90;;;;;;5104979;28;20964;-66
2023/10/20 11:32:54;;;;;;;3.33;3.03;;;6.90;99.90;;;;;;5098922;28;20211;-65
2023/10/20 11:35:24;;;;;;;2.73;2.53;;;6.90;99.90;;;;;;5105828;28;20607;-66
2023/10/20 11:37:51;;;;;;;2.80;2.60;;;6.90;99.90;;;;;;5107173;28;20712;-66
2023/10/20 11:40:18;;;;;;;3.57;2.90;;;6.90;99.90;;;;;;5107697;28;20289;-66
2023/10/20 11:42:45;;;;;;;2.80;2.67;;;6.90;99.90;;;;;;5107247;28;20337;-66
2023/10/20 11:45:14;;;;;;;3.00;2.70;;;6.90;99.90;;;;;;5105537;28;20277;-66
2023/10/20 11:47:41;;;;;;;2.80;2.70;;;7.00;99.90;;;;;;5098731;28;20202;-66
2023/10/20 11:50:09;;;;;;;2.43;2.33;;;6.90;99.90;;;;;;5101561;28;20643;-65
2023/10/20 11:52:37;;;;;;;2.77;2.57;;;7.00;99.90;;;;;;5102794;28;20206;-66
2023/10/20 11:55:05;;;;;;;2.23;2.13;;;6.90;99.90;;;;;;5104220;28;20222;-65
2023/10/20 11:57:32;;;;;;;2.83;2.60;;;6.90;99.90;;;;;;5095960;28;20281;-65
2023/10/20 12:00:01;;;;;;;2.87;2.70;;;6.80;99.90;;;;;;5101703;28;20687;-65
2023/10/20 12:02:30;;;;;;;2.33;2.23;;;6.90;99.90;;;;;;5106772;28;20676;-65
2023/10/20 12:04:56;;;;;;;2.50;2.30;;;6.90;99.90;;;;;;5101568;28;20216;-65
2023/10/20 12:07:23;;;;;;;2.53;2.43;;;6.90;99.90;;;;;;5102426;28;20206;-65
2023/10/20 12:09:50;;;;;;;2.77;2.57;;;6.90;99.90;;;;;;5104143;28;20759;-65
2023/10/20 12:12:17;;;;;;;2.43;2.27;;;6.90;99.90;;;;;;5101096;28;20812;-65
2023/10/20 12:14:44;;;;;;;2.37;2.27;;;6.90;99.90;;;;;;5090356;28;20262;-65
2023/10/20 12:17:11;;;;;;;2.50;2.30;;;6.90;99.90;;;;;;5098967;28;20206;-65
2023/10/20 12:19:40;;;;;;;2.20;2.10;;;6.90;99.90;;;;;;5092584;28;20572;-65
2023/10/20 12:22:08;;;;;;;2.93;2.73;;;7.00;99.90;;;;;;5098879;28;20231;-65
2023/10/20 12:24:35;;;;;;;2.40;2.20;;;7.00;99.90;;;;;;5103410;28;20195;-65
2023/10/20 12:27:02;;;;;;;2.50;2.40;;;7.00;99.90;;;;;;5086236;28;20214;-65
2023/10/20 12:29:30;;;;;;;2.50;2.40;;;7.00;99.90;;;;;;5086224;28;20292;-65
2023/10/20 12:31:58;;;;;;;2.33;2.23;;;7.00;99.90;;;;;;5085840;28;20297;-65
2023/10/20 12:34:26;;;;;;;2.43;2.33;;;7.00;99.90;;;;;;5085951;28;20227;-65
2023/10/20 12:36:54;;;;;;;2.50;2.40;;;7.00;99.90;;;;;;5085279;28;20238;-65
2023/10/20 12:39:21;;;;;;;2.20;2.10;;;7.00;99.90;;;;;;5085920;28;20203;-65
2023/10/20 12:41:50;;;;;;;2.50;2.40;;;7.00;99.90;;;;;;5090766;28;20195;-65
2023/10/20 12:44:18;;;;;;;2.20;2.10;;;7.00;99.90;;;;;;5092147;28;20219;-66
2023/10/20 12:46:45;;;;;;;2.00;1.90;;;7.00;99.90;;;;;;5086881;28;20290;-65
2023/10/20 12:49:12;;;;;;;2.10;2.00;;;7.00;99.90;;;;;;5086310;28;20226;-65
2023/10/20 12:51:41;;;;;;;2.17;2.07;;;7.00;99.90;;;;;;5093421;28;20318;-65
2023/10/20 12:54:09;;;;;;;2.30;2.20;;;7.00;99.90;;;;;;5094423;28;20218;-66
2023/10/20 12:56:36;;;;;;;2.10;1.87;;;7.00;99.90;;;;;;5085648;28;20584;-66
2023/10/20 12:59:03;;;;;;;2.10;2.00;;;7.00;99.90;;;;;;5085994;28;20562;-66
2023/10/20 13:01:32;;;;;;;2.23;2.03;;;7.00;99.90;;;;;;5096474;28;20585;-65
2023/10/20 13:03:59;;;;;;;1.90;1.80;;;6.90;99.90;;;;;;5105451;28;20822;-66
2023/10/20 13:06:27;;;;;;;2.07;1.60;;;7.00;99.90;;;;;;5101111;28;21047;-65
2023/10/20 13:08:54;;;;;;;1.70;1.60;;;6.90;99.90;;;;;;5085316;28;20576;-66
2023/10/20 13:11:22;;;;;;;1.27;1.27;;;6.80;99.90;;;;;;5097246;28;20206;-65
2023/10/20 13:13:50;;;;;;;1.60;1.50;;;6.80;99.90;;;;;;5095184;28;20232;-65
2023/10/20 13:16:17;;;;;;;1.47;1.47;;;6.90;99.90;;;;;;5101963;28;20249;-65
2023/10/20 13:18:44;;;;;;;1.63;1.53;;;6.90;99.90;;;;;;5089127;28;20606;-65
2023/10/20 13:21:11;;;;;;;1.70;1.60;;;6.90;99.90;;;;;;5105217;28;20297;-66
2023/10/20 13:23:38;;;;;;;1.27;1.20;;;6.90;99.90;;;;;;5105967;28;20248;-65
2023/10/20 13:26:05;;;;;;;1.33;1.33;;;6.90;99.90;;;;;;5100824;28;20209;-66
2023/10/20 13:28:34;;;;;;;1.50;1.40;;;6.80;99.90;;;;;;5105455;28;20575;-66